sensor_id;sensor_type;location;lat;lon;timestamp;P1;durP1;ratioP1;P2;durP2;ratioP2
16436;SDS011;8328;52.206;21.006;2024-01-30T00:00:34;197.52;;;45.55;;
16436;SDS011;8328;52.206;21.006;2024-01-30T00:03:02;194.13;;;44.58;;
16436;SDS011;8328;52.206;21.006;2024-01-30T00:05:28;195.57;;;45.17;;
16436;SDS011;8328;52.206;21.006;2024-01-30T00:07:54;196.38;;;45.35;;
16436;SDS011;8328;52.206;21.006;2024-01-30T00:10:22;199.15;;;45.78;;
16436;SDS011;8328;52.206;21.006;2024-01-30T00:12:48;195.13;;;44.95;;
16436;SDS011;8328;52.206;21.006;2024-01-30T00:15:14;201.50;;;47.35;;
16436;SDS011;8328;52.206;21.006;2024-01-30T00:17:47;202.90;;;48.42;;
16436;SDS011;8328;52.206;21.006;2024-01-30T00:20:26;211.85;;;45.63;;
16436;SDS011;8328;52.206;21.006;2024-01-30T00:22:54;204.23;;;47.10;;
16436;SDS011;8328;52.206;21.006;2024-01-30T00:25:20;199.55;;;45.30;;
16436;SDS011;8328;52.206;21.006;2024-01-30T00:27:46;202.15;;;46.03;;
16436;SDS011;8328;52.206;21.006;2024-01-30T00:30:12;200.27;;;45.42;;
16436;SDS011;8328;52.206;21.006;2024-01-30T00:32:38;204.10;;;47.80;;
16436;SDS011;8328;52.206;21.006;2024-01-30T00:35:05;205.15;;;46.75;;
16436;SDS011;8328;52.206;21.006;2024-01-30T00:37:31;202.57;;;46.30;;
16436;SDS011;8328;52.206;21.006;2024-01-30T00:39:58;199.77;;;45.85;;
16436;SDS011;8328;52.206;21.006;2024-01-30T00:42:24;204.85;;;46.97;;
16436;SDS011;8328;52.206;21.006;2024-01-30T00:44:50;204.48;;;46.83;;
16436;SDS011;8328;52.206;21.006;2024-01-30T00:47:16;205.38;;;47.45;;
16436;SDS011;8328;52.206;21.006;2024-01-30T00:49:42;209.60;;;48.47;;
16436;SDS011;8328;52.206;21.006;2024-01-30T00:52:08;212.95;;;48.03;;
16436;SDS011;8328;52.206;21.006;2024-01-30T00:54:35;204.45;;;46.17;;
16436;SDS011;8328;52.206;21.006;2024-01-30T00:57:01;212.07;;;49.50;;
16436;SDS011;8328;52.206;21.006;2024-01-30T00:59:27;207.40;;;49.47;;
16436;SDS011;8328;52.206;21.006;2024-01-30T01:01:53;202.63;;;46.08;;
16436;SDS011;8328;52.206;21.006;2024-01-30T01:04:21;218.93;;;54.30;;
16436;SDS011;8328;52.206;21.006;2024-01-30T01:06:47;205.07;;;47.30;;
16436;SDS011;8328;52.206;21.006;2024-01-30T01:09:13;203.85;;;46.33;;
16436;SDS011;8328;52.206;21.006;2024-01-30T01:11:39;201.05;;;46.83;;
16436;SDS011;8328;52.206;21.006;2024-01-30T01:14:05;206.05;;;47.38;;
16436;SDS011;8328;52.206;21.006;2024-01-30T01:16:32;212.45;;;48.65;;
16436;SDS011;8328;52.206;21.006;2024-01-30T01:18:58;207.32;;;47.30;;
16436;SDS011;8328;52.206;21.006;2024-01-30T01:21:25;204.25;;;45.88;;
16436;SDS011;8328;52.206;21.006;2024-01-30T01:23:56;237.73;;;58.00;;
16436;SDS011;8328;52.206;21.006;2024-01-30T01:26:25;207.27;;;49.47;;
16436;SDS011;8328;52.206;21.006;2024-01-30T01:28:51;220.73;;;50.08;;
16436;SDS011;8328;52.206;21.006;2024-01-30T01:31:17;217.93;;;45.97;;
16436;SDS011;8328;52.206;21.006;2024-01-30T01:37:16;241.63;;;80.70;;
16436;SDS011;8328;52.206;21.006;2024-01-30T01:39:43;221.75;;;45.47;;
16436;SDS011;8328;52.206;21.006;2024-01-30T01:42:11;221.60;;;45.50;;
16436;SDS011;8328;52.206;21.006;2024-01-30T01:44:37;231.30;;;50.33;;
16436;SDS011;8328;52.206;21.006;2024-01-30T01:47:03;221.15;;;46.97;;
16436;SDS011;8328;52.206;21.006;2024-01-30T01:49:29;218.60;;;44.92;;
16436;SDS011;8328;52.206;21.006;2024-01-30T01:51:56;230.48;;;47.80;;
16436;SDS011;8328;52.206;21.006;2024-01-30T01:54:24;238.90;;;50.60;;
16436;SDS011;8328;52.206;21.006;2024-01-30T01:56:51;226.65;;;47.70;;
16436;SDS011;8328;52.206;21.006;2024-01-30T01:59:20;227.57;;;46.47;;
16436;SDS011;8328;52.206;21.006;2024-01-30T02:01:46;230.50;;;50.28;;
16436;SDS011;8328;52.206;21.006;2024-01-30T02:04:15;223.45;;;44.60;;
16436;SDS011;8328;52.206;21.006;2024-01-30T02:06:42;227.38;;;46.03;;
16436;SDS011;8328;52.206;21.006;2024-01-30T02:09:09;225.85;;;48.00;;
16436;SDS011;8328;52.206;21.006;2024-01-30T02:11:35;225.73;;;47.08;;
16436;SDS011;8328;52.206;21.006;2024-01-30T02:14:04;225.15;;;50.00;;
16436;SDS011;8328;52.206;21.006;2024-01-30T02:16:31;222.25;;;45.17;;
16436;SDS011;8328;52.206;21.006;2024-01-30T02:18:57;224.85;;;45.80;;
16436;SDS011;8328;52.206;21.006;2024-01-30T02:21:23;234.15;;;50.58;;
16436;SDS011;8328;52.206;21.006;2024-01-30T02:23:50;224.40;;;46.08;;
16436;SDS011;8328;52.206;21.006;2024-01-30T02:26:16;229.38;;;46.78;;
16436;SDS011;8328;52.206;21.006;2024-01-30T02:28:42;225.40;;;44.72;;
16436;SDS011;8328;52.206;21.006;2024-01-30T02:31:08;226.98;;;46.72;;
16436;SDS011;8328;52.206;21.006;2024-01-30T02:33:34;228.45;;;46.58;;
16436;SDS011;8328;52.206;21.006;2024-01-30T02:36:01;227.05;;;46.80;;
16436;SDS011;8328;52.206;21.006;2024-01-30T02:38:27;230.35;;;45.70;;
16436;SDS011;8328;52.206;21.006;2024-01-30T02:40:54;237.68;;;48.42;;
16436;SDS011;8328;52.206;21.006;2024-01-30T02:43:21;226.60;;;45.83;;
16436;SDS011;8328;52.206;21.006;2024-01-30T02:45:47;230.30;;;47.47;;
16436;SDS011;8328;52.206;21.006;2024-01-30T02:48:13;230.88;;;47.38;;
16436;SDS011;8328;52.206;21.006;2024-01-30T02:50:39;226.85;;;46.22;;
16436;SDS011;8328;52.206;21.006;2024-01-30T02:53:05;220.63;;;42.55;;
16436;SDS011;8328;52.206;21.006;2024-01-30T02:55:31;227.77;;;45.45;;
16436;SDS011;8328;52.206;21.006;2024-01-30T02:57:57;224.23;;;43.78;;
16436;SDS011;8328;52.206;21.006;2024-01-30T03:00:23;236.73;;;49.30;;
16436;SDS011;8328;52.206;21.006;2024-01-30T03:02:50;227.07;;;47.05;;
16436;SDS011;8328;52.206;21.006;2024-01-30T03:05:16;228.82;;;47.90;;
16436;SDS011;8328;52.206;21.006;2024-01-30T03:07:42;237.20;;;49.13;;
16436;SDS011;8328;52.206;21.006;2024-01-30T03:10:09;224.40;;;43.95;;
16436;SDS011;8328;52.206;21.006;2024-01-30T03:12:35;227.02;;;45.08;;
16436;SDS011;8328;52.206;21.006;2024-01-30T03:15:01;223.30;;;43.13;;
16436;SDS011;8328;52.206;21.006;2024-01-30T03:17:27;226.77;;;45.03;;
16436;SDS011;8328;52.206;21.006;2024-01-30T03:19:54;224.30;;;43.95;;
16436;SDS011;8328;52.206;21.006;2024-01-30T03:22:21;225.65;;;44.78;;
16436;SDS011;8328;52.206;21.006;2024-01-30T03:24:47;228.82;;;46.17;;
16436;SDS011;8328;52.206;21.006;2024-01-30T03:27:13;225.23;;;44.28;;
16436;SDS011;8328;52.206;21.006;2024-01-30T03:29:41;224.98;;;44.70;;
16436;SDS011;8328;52.206;21.006;2024-01-30T03:32:09;226.13;;;45.17;;
16436;SDS011;8328;52.206;21.006;2024-01-30T03:34:35;229.88;;;47.67;;
16436;SDS011;8328;52.206;21.006;2024-01-30T03:37:01;231.73;;;46.75;;
16436;SDS011;8328;52.206;21.006;2024-01-30T03:39:27;228.93;;;45.20;;
16436;SDS011;8328;52.206;21.006;2024-01-30T03:41:54;228.50;;;45.00;;
16436;SDS011;8328;52.206;21.006;2024-01-30T03:44:20;230.02;;;44.53;;
16436;SDS011;8328;52.206;21.006;2024-01-30T03:46:46;238.02;;;49.08;;
16436;SDS011;8328;52.206;21.006;2024-01-30T03:49:12;245.02;;;48.33;;
16436;SDS011;8328;52.206;21.006;2024-01-30T03:51:38;230.18;;;46.90;;
16436;SDS011;8328;52.206;21.006;2024-01-30T03:54:04;233.65;;;43.75;;
16436;SDS011;8328;52.206;21.006;2024-01-30T03:56:31;232.00;;;48.50;;
16436;SDS011;8328;52.206;21.006;2024-01-30T03:58:57;226.80;;;43.85;;
16436;SDS011;8328;52.206;21.006;2024-01-30T04:01:26;233.95;;;47.80;;
16436;SDS011;8328;52.206;21.006;2024-01-30T04:03:52;228.90;;;44.83;;
16436;SDS011;8328;52.206;21.006;2024-01-30T04:06:18;230.27;;;45.78;;
16436;SDS011;8328;52.206;21.006;2024-01-30T04:08:45;234.52;;;45.78;;
16436;SDS011;8328;52.206;21.006;2024-01-30T04:11:11;231.70;;;45.45;;
16436;SDS011;8328;52.206;21.006;2024-01-30T04:13:37;230.35;;;45.40;;
16436;SDS011;8328;52.206;21.006;2024-01-30T04:16:03;230.25;;;46.08;;
16436;SDS011;8328;52.206;21.006;2024-01-30T04:18:29;230.02;;;44.63;;
16436;SDS011;8328;52.206;21.006;2024-01-30T04:20:59;226.98;;;44.00;;
16436;SDS011;8328;52.206;21.006;2024-01-30T04:23:25;232.68;;;46.42;;
16436;SDS011;8328;52.206;21.006;2024-01-30T04:25:51;237.35;;;47.45;;
16436;SDS011;8328;52.206;21.006;2024-01-30T04:28:18;231.77;;;45.67;;
16436;SDS011;8328;52.206;21.006;2024-01-30T04:30:43;232.52;;;46.75;;
16436;SDS011;8328;52.206;21.006;2024-01-30T04:33:11;237.50;;;49.65;;
16436;SDS011;8328;52.206;21.006;2024-01-30T04:35:37;234.52;;;45.95;;
16436;SDS011;8328;52.206;21.006;2024-01-30T04:38:03;233.93;;;45.55;;
16436;SDS011;8328;52.206;21.006;2024-01-30T04:40:29;238.52;;;48.80;;
16436;SDS011;8328;52.206;21.006;2024-01-30T04:42:55;234.75;;;46.60;;
16436;SDS011;8328;52.206;21.006;2024-01-30T04:45:21;244.95;;;50.60;;
16436;SDS011;8328;52.206;21.006;2024-01-30T04:47:47;255.40;;;51.17;;
16436;SDS011;8328;52.206;21.006;2024-01-30T04:50:13;233.55;;;45.72;;
16436;SDS011;8328;52.206;21.006;2024-01-30T04:52:40;237.65;;;46.50;;
16436;SDS011;8328;52.206;21.006;2024-01-30T04:55:06;248.70;;;52.67;;
16436;SDS011;8328;52.206;21.006;2024-01-30T04:57:32;237.35;;;46.22;;
16436;SDS011;8328;52.206;21.006;2024-01-30T04:59:59;242.30;;;47.85;;
16436;SDS011;8328;52.206;21.006;2024-01-30T05:02:25;234.90;;;46.58;;
16436;SDS011;8328;52.206;21.006;2024-01-30T05:04:51;278.77;;;58.22;;
16436;SDS011;8328;52.206;21.006;2024-01-30T05:07:18;236.20;;;45.42;;
16436;SDS011;8328;52.206;21.006;2024-01-30T05:10:09;246.65;;;48.70;;
16436;SDS011;8328;52.206;21.006;2024-01-30T05:12:35;246.48;;;51.03;;
16436;SDS011;8328;52.206;21.006;2024-01-30T05:15:01;267.38;;;57.55;;
16436;SDS011;8328;52.206;21.006;2024-01-30T05:20:08;245.70;;;50.80;;
16436;SDS011;8328;52.206;21.006;2024-01-30T05:22:38;237.32;;;46.65;;
16436;SDS011;8328;52.206;21.006;2024-01-30T05:25:27;260.88;;;56.35;;
16436;SDS011;8328;52.206;21.006;2024-01-30T05:31:29;241.30;;;48.75;;
16436;SDS011;8328;52.206;21.006;2024-01-30T05:33:55;241.50;;;48.85;;
16436;SDS011;8328;52.206;21.006;2024-01-30T05:39:19;242.65;;;47.05;;
16436;SDS011;8328;52.206;21.006;2024-01-30T05:41:45;237.90;;;46.85;;
16436;SDS011;8328;52.206;21.006;2024-01-30T05:44:11;249.05;;;51.83;;
16436;SDS011;8328;52.206;21.006;2024-01-30T05:46:37;239.80;;;51.10;;
16436;SDS011;8328;52.206;21.006;2024-01-30T05:49:04;239.18;;;47.13;;
16436;SDS011;8328;52.206;21.006;2024-01-30T05:51:30;236.35;;;46.92;;
16436;SDS011;8328;52.206;21.006;2024-01-30T05:53:56;240.43;;;49.75;;
16436;SDS011;8328;52.206;21.006;2024-01-30T05:56:23;236.52;;;45.95;;
16436;SDS011;8328;52.206;21.006;2024-01-30T05:58:49;237.35;;;46.35;;
16436;SDS011;8328;52.206;21.006;2024-01-30T06:01:16;239.75;;;47.05;;
16436;SDS011;8328;52.206;21.006;2024-01-30T06:03:42;235.00;;;45.63;;
16436;SDS011;8328;52.206;21.006;2024-01-30T06:06:08;233.25;;;45.95;;
16436;SDS011;8328;52.206;21.006;2024-01-30T06:08:34;264.65;;;53.88;;
16436;SDS011;8328;52.206;21.006;2024-01-30T06:11:00;236.48;;;45.30;;
16436;SDS011;8328;52.206;21.006;2024-01-30T06:13:26;240.82;;;48.38;;
16436;SDS011;8328;52.206;21.006;2024-01-30T06:15:53;240.73;;;46.78;;
16436;SDS011;8328;52.206;21.006;2024-01-30T06:18:22;237.02;;;45.53;;
16436;SDS011;8328;52.206;21.006;2024-01-30T06:20:48;271.33;;;56.47;;
16436;SDS011;8328;52.206;21.006;2024-01-30T06:23:14;235.43;;;44.42;;
16436;SDS011;8328;52.206;21.006;2024-01-30T06:25:40;245.85;;;48.60;;
16436;SDS011;8328;52.206;21.006;2024-01-30T06:28:06;241.43;;;47.35;;
16436;SDS011;8328;52.206;21.006;2024-01-30T06:30:32;243.25;;;47.95;;
16436;SDS011;8328;52.206;21.006;2024-01-30T06:32:58;237.57;;;45.30;;
16436;SDS011;8328;52.206;21.006;2024-01-30T06:35:25;234.32;;;44.80;;
16436;SDS011;8328;52.206;21.006;2024-01-30T06:37:51;254.32;;;50.97;;
16436;SDS011;8328;52.206;21.006;2024-01-30T06:40:17;232.13;;;44.70;;
16436;SDS011;8328;52.206;21.006;2024-01-30T06:42:43;232.98;;;49.42;;
16436;SDS011;8328;52.206;21.006;2024-01-30T06:45:09;229.70;;;47.50;;
16436;SDS011;8328;52.206;21.006;2024-01-30T06:47:35;238.38;;;49.80;;
16436;SDS011;8328;52.206;21.006;2024-01-30T06:50:01;248.20;;;48.67;;
16436;SDS011;8328;52.206;21.006;2024-01-30T06:52:29;243.38;;;48.08;;
16436;SDS011;8328;52.206;21.006;2024-01-30T06:54:55;266.27;;;57.35;;
16436;SDS011;8328;52.206;21.006;2024-01-30T06:57:21;242.65;;;51.10;;
16436;SDS011;8328;52.206;21.006;2024-01-30T06:59:47;270.02;;;58.47;;
16436;SDS011;8328;52.206;21.006;2024-01-30T07:02:14;269.02;;;53.58;;
16436;SDS011;8328;52.206;21.006;2024-01-30T07:04:40;250.90;;;50.38;;
16436;SDS011;8328;52.206;21.006;2024-01-30T07:07:07;246.40;;;49.70;;
16436;SDS011;8328;52.206;21.006;2024-01-30T07:09:37;246.30;;;49.78;;
16436;SDS011;8328;52.206;21.006;2024-01-30T07:12:03;244.85;;;47.95;;
16436;SDS011;8328;52.206;21.006;2024-01-30T07:14:33;257.48;;;52.15;;
16436;SDS011;8328;52.206;21.006;2024-01-30T07:17:00;252.88;;;53.20;;
16436;SDS011;8328;52.206;21.006;2024-01-30T07:19:26;249.75;;;50.55;;
16436;SDS011;8328;52.206;21.006;2024-01-30T07:21:52;242.30;;;46.72;;
16436;SDS011;8328;52.206;21.006;2024-01-30T07:24:18;248.13;;;50.47;;
16436;SDS011;8328;52.206;21.006;2024-01-30T07:26:46;248.73;;;50.38;;
16436;SDS011;8328;52.206;21.006;2024-01-30T07:29:12;250.93;;;50.10;;
16436;SDS011;8328;52.206;21.006;2024-01-30T07:31:38;259.63;;;52.63;;
16436;SDS011;8328;52.206;21.006;2024-01-30T07:34:07;247.75;;;49.92;;
16436;SDS011;8328;52.206;21.006;2024-01-30T07:36:33;246.20;;;50.20;;
16436;SDS011;8328;52.206;21.006;2024-01-30T07:38:59;258.20;;;54.83;;
16436;SDS011;8328;52.206;21.006;2024-01-30T07:41:25;246.25;;;47.58;;
16436;SDS011;8328;52.206;21.006;2024-01-30T07:43:51;248.07;;;48.75;;
16436;SDS011;8328;52.206;21.006;2024-01-30T07:46:20;248.50;;;53.20;;
16436;SDS011;8328;52.206;21.006;2024-01-30T07:48:46;250.50;;;50.20;;
16436;SDS011;8328;52.206;21.006;2024-01-30T07:51:12;248.75;;;49.00;;
16436;SDS011;8328;52.206;21.006;2024-01-30T07:53:38;241.98;;;47.35;;
16436;SDS011;8328;52.206;21.006;2024-01-30T07:56:05;249.65;;;50.22;;
16436;SDS011;8328;52.206;21.006;2024-01-30T07:58:31;243.38;;;48.03;;
16436;SDS011;8328;52.206;21.006;2024-01-30T08:00:58;245.93;;;50.05;;
16436;SDS011;8328;52.206;21.006;2024-01-30T08:03:25;244.70;;;49.55;;
16436;SDS011;8328;52.206;21.006;2024-01-30T08:05:51;255.43;;;54.30;;
16436;SDS011;8328;52.206;21.006;2024-01-30T08:08:17;251.18;;;48.75;;
16436;SDS011;8328;52.206;21.006;2024-01-30T08:13:14;252.50;;;51.58;;
16436;SDS011;8328;52.206;21.006;2024-01-30T08:15:40;269.55;;;53.92;;
16436;SDS011;8328;52.206;21.006;2024-01-30T08:18:06;252.00;;;51.38;;
16436;SDS011;8328;52.206;21.006;2024-01-30T08:20:32;245.65;;;49.95;;
16436;SDS011;8328;52.206;21.006;2024-01-30T08:23:01;249.40;;;51.38;;
16436;SDS011;8328;52.206;21.006;2024-01-30T08:25:27;261.60;;;57.25;;
16436;SDS011;8328;52.206;21.006;2024-01-30T08:27:53;255.77;;;52.08;;
16436;SDS011;8328;52.206;21.006;2024-01-30T08:30:19;264.10;;;53.10;;
16436;SDS011;8328;52.206;21.006;2024-01-30T08:32:45;246.45;;;48.50;;
16436;SDS011;8328;52.206;21.006;2024-01-30T08:35:12;261.63;;;54.45;;
16436;SDS011;8328;52.206;21.006;2024-01-30T08:37:40;252.60;;;51.45;;
16436;SDS011;8328;52.206;21.006;2024-01-30T08:40:08;249.65;;;50.05;;
16436;SDS011;8328;52.206;21.006;2024-01-30T08:42:34;250.00;;;49.30;;
16436;SDS011;8328;52.206;21.006;2024-01-30T08:45:00;251.20;;;50.67;;
16436;SDS011;8328;52.206;21.006;2024-01-30T08:47:27;255.82;;;52.70;;
16436;SDS011;8328;52.206;21.006;2024-01-30T08:49:53;254.90;;;54.08;;
16436;SDS011;8328;52.206;21.006;2024-01-30T08:52:20;256.08;;;53.47;;
16436;SDS011;8328;52.206;21.006;2024-01-30T08:54:47;252.00;;;49.67;;
16436;SDS011;8328;52.206;21.006;2024-01-30T08:57:14;256.65;;;51.83;;
16436;SDS011;8328;52.206;21.006;2024-01-30T08:59:41;256.02;;;51.40;;
16436;SDS011;8328;52.206;21.006;2024-01-30T09:02:09;253.98;;;51.47;;
16436;SDS011;8328;52.206;21.006;2024-01-30T09:04:37;245.93;;;49.50;;
16436;SDS011;8328;52.206;21.006;2024-01-30T09:07:03;243.68;;;48.38;;
16436;SDS011;8328;52.206;21.006;2024-01-30T09:09:33;263.88;;;51.55;;
16436;SDS011;8328;52.206;21.006;2024-01-30T09:11:59;249.63;;;48.97;;
16436;SDS011;8328;52.206;21.006;2024-01-30T09:14:32;241.23;;;47.28;;
16436;SDS011;8328;52.206;21.006;2024-01-30T09:16:58;245.75;;;48.53;;
16436;SDS011;8328;52.206;21.006;2024-01-30T09:19:24;255.88;;;53.20;;
16436;SDS011;8328;52.206;21.006;2024-01-30T09:21:50;265.58;;;54.83;;
16436;SDS011;8328;52.206;21.006;2024-01-30T09:24:16;261.73;;;51.55;;
16436;SDS011;8328;52.206;21.006;2024-01-30T09:26:42;254.65;;;52.38;;
16436;SDS011;8328;52.206;21.006;2024-01-30T09:29:08;260.42;;;50.10;;
16436;SDS011;8328;52.206;21.006;2024-01-30T09:31:34;259.63;;;51.92;;
16436;SDS011;8328;52.206;21.006;2024-01-30T09:34:00;258.60;;;54.83;;
16436;SDS011;8328;52.206;21.006;2024-01-30T09:36:26;262.35;;;49.75;;
16436;SDS011;8328;52.206;21.006;2024-01-30T09:38:52;254.35;;;50.40;;
16436;SDS011;8328;52.206;21.006;2024-01-30T09:41:19;258.30;;;52.80;;
16436;SDS011;8328;52.206;21.006;2024-01-30T09:43:48;253.73;;;50.88;;
16436;SDS011;8328;52.206;21.006;2024-01-30T09:46:14;250.68;;;49.67;;
16436;SDS011;8328;52.206;21.006;2024-01-30T09:48:42;260.92;;;51.15;;
16436;SDS011;8328;52.206;21.006;2024-01-30T09:51:09;256.52;;;51.28;;
16436;SDS011;8328;52.206;21.006;2024-01-30T09:53:36;255.63;;;51.60;;
16436;SDS011;8328;52.206;21.006;2024-01-30T09:56:02;249.13;;;48.78;;
16436;SDS011;8328;52.206;21.006;2024-01-30T09:58:28;250.85;;;49.30;;
16436;SDS011;8328;52.206;21.006;2024-01-30T10:00:55;249.32;;;48.92;;
16436;SDS011;8328;52.206;21.006;2024-01-30T10:03:21;263.17;;;52.97;;
16436;SDS011;8328;52.206;21.006;2024-01-30T10:05:53;252.10;;;50.72;;
16436;SDS011;8328;52.206;21.006;2024-01-30T10:08:21;255.27;;;51.42;;
16436;SDS011;8328;52.206;21.006;2024-01-30T10:10:48;253.88;;;50.55;;
16436;SDS011;8328;52.206;21.006;2024-01-30T10:13:15;252.07;;;48.35;;
16436;SDS011;8328;52.206;21.006;2024-01-30T10:15:41;271.75;;;51.50;;
16436;SDS011;8328;52.206;21.006;2024-01-30T10:18:08;275.15;;;53.17;;
16436;SDS011;8328;52.206;21.006;2024-01-30T10:20:35;261.00;;;51.55;;
16436;SDS011;8328;52.206;21.006;2024-01-30T10:23:01;261.85;;;51.13;;
16436;SDS011;8328;52.206;21.006;2024-01-30T10:25:28;269.17;;;56.17;;
16436;SDS011;8328;52.206;21.006;2024-01-30T10:27:55;271.33;;;55.50;;
16436;SDS011;8328;52.206;21.006;2024-01-30T10:30:21;258.30;;;51.15;;
16436;SDS011;8328;52.206;21.006;2024-01-30T10:32:47;269.08;;;54.50;;
16436;SDS011;8328;52.206;21.006;2024-01-30T10:35:14;261.13;;;54.10;;
16436;SDS011;8328;52.206;21.006;2024-01-30T10:37:41;266.73;;;54.38;;
16436;SDS011;8328;52.206;21.006;2024-01-30T10:40:09;258.98;;;50.03;;
16436;SDS011;8328;52.206;21.006;2024-01-30T10:42:40;272.40;;;53.88;;
16436;SDS011;8328;52.206;21.006;2024-01-30T10:45:13;248.52;;;48.55;;
16436;SDS011;8328;52.206;21.006;2024-01-30T10:47:50;183.02;;;36.67;;
16436;SDS011;8328;52.206;21.006;2024-01-30T10:50:18;207.13;;;35.63;;
16436;SDS011;8328;52.206;21.006;2024-01-30T10:52:45;251.77;;;39.10;;
16436;SDS011;8328;52.206;21.006;2024-01-30T10:55:11;325.23;;;46.35;;
16436;SDS011;8328;52.206;21.006;2024-01-30T10:57:37;286.38;;;41.72;;
16436;SDS011;8328;52.206;21.006;2024-01-30T11:00:04;283.73;;;42.65;;
16436;SDS011;8328;52.206;21.006;2024-01-30T11:02:36;322.17;;;45.53;;
16436;SDS011;8328;52.206;21.006;2024-01-30T11:05:07;296.40;;;43.05;;
16436;SDS011;8328;52.206;21.006;2024-01-30T11:07:33;307.40;;;46.97;;
16436;SDS011;8328;52.206;21.006;2024-01-30T11:10:00;291.33;;;45.50;;
16436;SDS011;8328;52.206;21.006;2024-01-30T11:12:32;307.63;;;46.58;;
16436;SDS011;8328;52.206;21.006;2024-01-30T11:20:30;313.52;;;50.08;;
16436;SDS011;8328;52.206;21.006;2024-01-30T11:22:56;341.80;;;53.92;;
16436;SDS011;8328;52.206;21.006;2024-01-30T11:25:23;315.80;;;50.10;;
16436;SDS011;8328;52.206;21.006;2024-01-30T11:27:50;332.33;;;53.75;;
16436;SDS011;8328;52.206;21.006;2024-01-30T11:32:59;349.45;;;54.58;;
16436;SDS011;8328;52.206;21.006;2024-01-30T11:35:36;324.80;;;53.20;;
16436;SDS011;8328;52.206;21.006;2024-01-30T11:38:04;328.63;;;54.22;;
16436;SDS011;8328;52.206;21.006;2024-01-30T11:40:31;390.63;;;66.82;;
16436;SDS011;8328;52.206;21.006;2024-01-30T11:42:58;342.85;;;57.22;;
16436;SDS011;8328;52.206;21.006;2024-01-30T11:45:28;367.83;;;60.78;;
16436;SDS011;8328;52.206;21.006;2024-01-30T11:47:55;315.42;;;51.85;;
16436;SDS011;8328;52.206;21.006;2024-01-30T11:50:21;323.75;;;51.10;;
16436;SDS011;8328;52.206;21.006;2024-01-30T11:52:47;327.55;;;51.25;;
16436;SDS011;8328;52.206;21.006;2024-01-30T11:55:14;239.02;;;39.45;;
16436;SDS011;8328;52.206;21.006;2024-01-30T11:57:40;295.02;;;46.97;;
16436;SDS011;8328;52.206;21.006;2024-01-30T12:00:06;269.35;;;42.53;;
16436;SDS011;8328;52.206;21.006;2024-01-30T12:02:40;283.90;;;43.30;;
16436;SDS011;8328;52.206;21.006;2024-01-30T12:05:06;287.50;;;44.15;;
16436;SDS011;8328;52.206;21.006;2024-01-30T12:07:33;349.05;;;52.67;;
16436;SDS011;8328;52.206;21.006;2024-01-30T12:10:02;316.05;;;46.95;;
16436;SDS011;8328;52.206;21.006;2024-01-30T12:12:30;360.27;;;52.05;;
16436;SDS011;8328;52.206;21.006;2024-01-30T12:14:56;289.40;;;44.58;;
16436;SDS011;8328;52.206;21.006;2024-01-30T12:17:30;303.08;;;47.80;;
16436;SDS011;8328;52.206;21.006;2024-01-30T12:20:06;228.10;;;38.80;;
16436;SDS011;8328;52.206;21.006;2024-01-30T12:22:50;273.13;;;45.28;;
16436;SDS011;8328;52.206;21.006;2024-01-30T12:25:19;275.10;;;44.60;;
16436;SDS011;8328;52.206;21.006;2024-01-30T12:27:49;262.90;;;42.20;;
16436;SDS011;8328;52.206;21.006;2024-01-30T12:30:17;300.40;;;47.45;;
16436;SDS011;8328;52.206;21.006;2024-01-30T12:32:45;257.85;;;44.85;;
16436;SDS011;8328;52.206;21.006;2024-01-30T12:35:15;305.80;;;49.05;;
16436;SDS011;8328;52.206;21.006;2024-01-30T12:37:42;288.02;;;47.33;;
16436;SDS011;8328;52.206;21.006;2024-01-30T12:40:10;261.05;;;44.20;;
16436;SDS011;8328;52.206;21.006;2024-01-30T12:42:38;298.48;;;50.33;;
16436;SDS011;8328;52.206;21.006;2024-01-30T12:45:08;317.15;;;50.15;;
16436;SDS011;8328;52.206;21.006;2024-01-30T12:47:35;300.77;;;48.85;;
16436;SDS011;8328;52.206;21.006;2024-01-30T12:50:01;297.23;;;49.78;;
16436;SDS011;8328;52.206;21.006;2024-01-30T12:52:28;299.90;;;48.13;;
16436;SDS011;8328;52.206;21.006;2024-01-30T12:54:54;353.70;;;55.05;;
16436;SDS011;8328;52.206;21.006;2024-01-30T12:57:20;305.10;;;49.15;;
16436;SDS011;8328;52.206;21.006;2024-01-30T12:59:47;302.67;;;48.75;;
16436;SDS011;8328;52.206;21.006;2024-01-30T13:02:15;291.10;;;46.70;;
16436;SDS011;8328;52.206;21.006;2024-01-30T13:04:42;294.83;;;47.20;;
16436;SDS011;8328;52.206;21.006;2024-01-30T13:07:08;337.50;;;52.03;;
16436;SDS011;8328;52.206;21.006;2024-01-30T13:09:34;296.35;;;46.65;;
16436;SDS011;8328;52.206;21.006;2024-01-30T13:12:00;293.30;;;47.22;;
16436;SDS011;8328;52.206;21.006;2024-01-30T13:14:32;324.52;;;51.40;;
16436;SDS011;8328;52.206;21.006;2024-01-30T13:16:58;326.80;;;52.53;;
16436;SDS011;8328;52.206;21.006;2024-01-30T13:19:25;342.70;;;57.03;;
16436;SDS011;8328;52.206;21.006;2024-01-30T13:21:52;297.42;;;51.60;;
16436;SDS011;8328;52.206;21.006;2024-01-30T13:24:18;338.58;;;56.28;;
16436;SDS011;8328;52.206;21.006;2024-01-30T13:26:46;322.23;;;55.83;;
16436;SDS011;8328;52.206;21.006;2024-01-30T13:29:14;344.40;;;59.25;;
16436;SDS011;8328;52.206;21.006;2024-01-30T13:31:40;353.92;;;58.72;;
16436;SDS011;8328;52.206;21.006;2024-01-30T13:34:06;399.08;;;64.05;;
16436;SDS011;8328;52.206;21.006;2024-01-30T13:36:33;372.23;;;60.00;;
16436;SDS011;8328;52.206;21.006;2024-01-30T13:39:03;341.98;;;58.55;;
16436;SDS011;8328;52.206;21.006;2024-01-30T13:41:33;338.23;;;58.13;;
16436;SDS011;8328;52.206;21.006;2024-01-30T13:43:59;355.35;;;59.55;;
16436;SDS011;8328;52.206;21.006;2024-01-30T13:46:28;401.08;;;64.10;;
16436;SDS011;8328;52.206;21.006;2024-01-30T13:48:54;367.88;;;59.25;;
16436;SDS011;8328;52.206;21.006;2024-01-30T13:51:20;332.95;;;57.00;;
16436;SDS011;8328;52.206;21.006;2024-01-30T13:53:46;372.35;;;60.15;;
16436;SDS011;8328;52.206;21.006;2024-01-30T13:56:12;373.73;;;60.47;;
16436;SDS011;8328;52.206;21.006;2024-01-30T13:58:38;358.27;;;57.22;;
16436;SDS011;8328;52.206;21.006;2024-01-30T14:01:05;336.67;;;54.42;;
16436;SDS011;8328;52.206;21.006;2024-01-30T14:03:31;302.27;;;51.45;;
16436;SDS011;8328;52.206;21.006;2024-01-30T14:05:57;349.40;;;56.40;;
16436;SDS011;8328;52.206;21.006;2024-01-30T14:08:23;349.42;;;55.75;;
16436;SDS011;8328;52.206;21.006;2024-01-30T14:10:53;335.67;;;55.70;;
16436;SDS011;8328;52.206;21.006;2024-01-30T14:13:20;337.25;;;55.05;;
16436;SDS011;8328;52.206;21.006;2024-01-30T14:15:48;364.50;;;57.70;;
16436;SDS011;8328;52.206;21.006;2024-01-30T14:18:17;310.10;;;53.05;;
16436;SDS011;8328;52.206;21.006;2024-01-30T14:20:43;323.40;;;54.13;;
16436;SDS011;8328;52.206;21.006;2024-01-30T14:23:09;340.75;;;56.70;;
16436;SDS011;8328;52.206;21.006;2024-01-30T14:25:41;340.35;;;55.20;;
16436;SDS011;8328;52.206;21.006;2024-01-30T14:28:07;382.75;;;59.10;;
16436;SDS011;8328;52.206;21.006;2024-01-30T14:30:34;376.73;;;56.22;;